Terminal Aerodrome Forecast
Issued by NWS Knoxville/Tri Cities, TN

Home | Current Version | Previous Version | Text Only | Print | Product List | Glossary On
Versions: 1 2 3 4 5 6 7 8 9 10 11 12 13 14 15 16 17 18 19 20 21 22 23 24 25 26 27 28 29 30 31 32 33 34 35 36 37 38 39 40
000
FTUS44 KMRX 020525
TAFCHA
TAF
KCHA 020525Z 0206/0306 17003KT 5SM -SHRA BR BKN040
      TEMPO 0206/0210 2SM TSRA BR SCT005 OVC025CB
     FM021200 20005KT P6SM VCTS BKN025CB OVC070
     FM021600 22007KT P6SM VCTS SCT025CB BKN100
     FM022000 21012KT 3SM TSRA BR BKN025CB OVC050
     FM030200 19005KT P6SM VCTS BKN030CB OVC080=

USA.gov is the U.S. government's official web portal to all federal, state and local government web resources and services.